createdAt,value
2022-08-19T00:00:05.843Z,20.6
2022-08-19T00:15:02.910Z,20.5
2022-08-19T00:30:03.663Z,20.5
2022-08-19T00:45:02.174Z,20.5
2022-08-19T01:00:05.232Z,20.5
2022-08-19T01:15:02.147Z,20.5
2022-08-19T01:30:04.964Z,20.4
2022-08-19T01:45:02.594Z,20.4
2022-08-19T02:00:03.601Z,20.4
2022-08-19T02:15:02.690Z,20.4
2022-08-19T02:30:03.193Z,20.3
2022-08-19T02:45:02.283Z,20.3
2022-08-19T03:00:06.155Z,20.3
2022-08-19T03:15:03.135Z,20.3
2022-08-19T03:30:06.158Z,20.3
2022-08-19T03:45:02.531Z,20.3
2022-08-19T04:00:04.208Z,20.2
2022-08-19T04:15:02.902Z,20.2
2022-08-19T04:30:05.367Z,20.2
2022-08-19T04:45:03.586Z,20.2
2022-08-19T05:00:04.246Z,20.2
2022-08-19T05:15:02.927Z,20.2
2022-08-19T05:30:05.761Z,20.2
2022-08-19T05:45:02.832Z,20.2
2022-08-19T06:00:05.314Z,20.2
2022-08-19T06:15:02.431Z,20.2
2022-08-19T06:30:05.663Z,20.3
2022-08-19T06:45:03.645Z,20.3
2022-08-19T07:00:08.793Z,20.3
2022-08-19T07:15:03.615Z,20.3
2022-08-19T07:30:05.281Z,20.3
2022-08-19T07:45:03.733Z,20.3
2022-08-19T08:00:04.738Z,20.4
2022-08-19T08:15:02.354Z,20.4
2022-08-19T08:30:05.602Z,20.4
2022-08-19T08:45:03.984Z,20.4
2022-08-19T09:00:04.435Z,20.4
2022-08-19T09:15:02.677Z,20.4
2022-08-19T09:30:05.196Z,20.4
2022-08-19T09:45:02.464Z,20.4
2022-08-19T10:00:05.205Z,20.5
2022-08-19T10:15:03.692Z,20.5
2022-08-19T10:30:04.723Z,20.5
2022-08-19T10:45:02.101Z,20.5
2022-08-19T11:00:05.567Z,20.5
2022-08-19T11:15:02.235Z,20.5
2022-08-19T11:30:07.952Z,20.6
2022-08-19T11:45:03.715Z,20.6
2022-08-19T12:00:05.211Z,20.7
2022-08-19T12:15:02.642Z,20.7
2022-08-19T12:30:04.254Z,20.8
2022-08-19T12:45:03.041Z,20.8
2022-08-19T13:00:08.340Z,20.8
2022-08-19T13:15:03.398Z,20.8
2022-08-19T13:30:09.743Z,20.8
2022-08-19T13:45:03.345Z,20.8
2022-08-19T14:00:08.339Z,20.8
2022-08-19T14:15:03.587Z,20.8
2022-08-19T14:30:09.731Z,20.9
2022-08-19T14:45:03.727Z,20.9
2022-08-19T15:00:06.029Z,20.8
2022-08-19T15:15:02.467Z,20.8
2022-08-19T15:30:06.851Z,20.8
2022-08-19T15:45:03.587Z,20.8
2022-08-19T16:00:09.033Z,20.7
2022-08-19T16:15:03.928Z,20.7
2022-08-19T16:30:06.151Z,20.7
2022-08-19T16:45:04.867Z,20.6
2022-08-19T17:00:07.372Z,20.6
2022-08-19T17:15:02.810Z,20.6
2022-08-19T17:30:05.311Z,20.5
2022-08-19T17:45:02.483Z,20.5
2022-08-19T18:00:08.940Z,20.5
2022-08-19T18:15:04.060Z,20.4
2022-08-19T18:30:05.368Z,20.4
2022-08-19T18:45:03.742Z,20.3
2022-08-19T19:00:05.670Z,20.3
2022-08-19T19:15:03.083Z,20.3
2022-08-19T19:30:05.786Z,20.3
2022-08-19T19:45:02.099Z,20.2
2022-08-19T20:00:07.725Z,20.2
2022-08-19T20:15:03.541Z,20.2
2022-08-19T20:30:07.162Z,20.1
2022-08-19T20:45:02.294Z,20.1
2022-08-19T21:00:06.579Z,20.1
2022-08-19T21:15:03.083Z,20.1
2022-08-19T21:30:04.147Z,20.1
2022-08-19T21:45:03.732Z,20.0
2022-08-19T22:00:06.935Z,20
2022-08-19T22:15:02.842Z,20
2022-08-19T22:30:06.640Z,20
2022-08-19T22:45:03.876Z,20
2022-08-19T23:00:05.676Z,20
2022-08-19T23:15:03.025Z,19.9
2022-08-19T23:30:05.030Z,19.9
2022-08-19T23:45:03.976Z,19.9
